sensor_id;sensor_type;location;lat;lon;timestamp;pressure;altitude;pressure_sealevel;temperature;humidity
70909;BME280;58554;52.006;5.926;2022-09-17T00:02:17;100419.81;;;14.59;56.77
70909;BME280;58554;52.006;5.926;2022-09-17T00:04:46;100418.25;;;14.56;57.03
70909;BME280;58554;52.006;5.926;2022-09-17T00:07:16;100420.19;;;14.54;57.29
70909;BME280;58554;52.006;5.926;2022-09-17T00:09:42;100412.94;;;14.56;57.38
70909;BME280;58554;52.006;5.926;2022-09-17T00:12:09;100402.31;;;14.56;57.44
70909;BME280;58554;52.006;5.926;2022-09-17T00:14:36;100411.97;;;14.57;57.46
70909;BME280;58554;52.006;5.926;2022-09-17T00:17:02;100410.13;;;14.58;57.56
70909;BME280;58554;52.006;5.926;2022-09-17T00:19:29;100414.50;;;14.59;57.46
70909;BME280;58554;52.006;5.926;2022-09-17T00:21:55;100415.34;;;14.59;57.57
70909;BME280;58554;52.006;5.926;2022-09-17T00:24:24;100423.31;;;14.59;57.55
70909;BME280;58554;52.006;5.926;2022-09-17T00:26:51;100425.16;;;14.59;57.59
70909;BME280;58554;52.006;5.926;2022-09-17T00:29:18;100422.59;;;14.57;57.71
70909;BME280;58554;52.006;5.926;2022-09-17T00:31:44;100428.03;;;14.56;57.78
70909;BME280;58554;52.006;5.926;2022-09-17T00:34:11;100430.84;;;14.54;57.84
70909;BME280;58554;52.006;5.926;2022-09-17T00:36:38;100430.97;;;14.53;58.01
70909;BME280;58554;52.006;5.926;2022-09-17T00:39:08;100428.66;;;14.48;57.97
70909;BME280;58554;52.006;5.926;2022-09-17T00:41:38;100424.56;;;14.44;58.01
70909;BME280;58554;52.006;5.926;2022-09-17T00:47:13;100447.28;;;14.37;57.91
70909;BME280;58554;52.006;5.926;2022-09-17T00:49:45;100436.06;;;14.33;58.10
70909;BME280;58554;52.006;5.926;2022-09-17T00:52:16;100443.03;;;14.34;58.21
70909;BME280;58554;52.006;5.926;2022-09-17T00:54:51;100434.22;;;14.34;58.35
70909;BME280;58554;52.006;5.926;2022-09-17T00:57:23;100434.22;;;14.34;58.38
70909;BME280;58554;52.006;5.926;2022-09-17T00:59:50;100443.88;;;14.35;58.36
70909;BME280;58554;52.006;5.926;2022-09-17T01:02:17;100440.50;;;14.33;58.37
70909;BME280;58554;52.006;5.926;2022-09-17T01:04:45;100444.25;;;14.30;58.48
70909;BME280;58554;52.006;5.926;2022-09-17T01:07:19;100444.16;;;14.32;58.47
70909;BME280;58554;52.006;5.926;2022-09-17T01:10:02;100439.66;;;14.32;58.55
70909;BME280;58554;52.006;5.926;2022-09-17T01:12:56;100448.38;;;14.34;58.61
70909;BME280;58554;52.006;5.926;2022-09-17T01:15:40;100434.94;;;14.36;58.38
70909;BME280;58554;52.006;5.926;2022-09-17T01:18:23;100447.28;;;14.37;58.67
70909;BME280;58554;52.006;5.926;2022-09-17T01:21:29;100467.50;;;14.40;58.71
70909;BME280;58554;52.006;5.926;2022-09-17T01:24:21;100471.22;;;14.37;58.82
70909;BME280;58554;52.006;5.926;2022-09-17T01:27:34;100465.91;;;14.37;58.74
70909;BME280;58554;52.006;5.926;2022-09-17T01:30:34;100463.47;;;14.34;58.91
70909;BME280;58554;52.006;5.926;2022-09-17T01:33:14;100461.31;;;14.28;58.83
70909;BME280;58554;52.006;5.926;2022-09-17T01:35:50;100462.50;;;14.24;59.07
70909;BME280;58554;52.006;5.926;2022-09-17T01:38:29;100469.75;;;14.22;59.25
70909;BME280;58554;52.006;5.926;2022-09-17T01:41:05;100469.75;;;14.22;59.31
70909;BME280;58554;52.006;5.926;2022-09-17T01:43:44;100481.34;;;14.21;59.49
70909;BME280;58554;52.006;5.926;2022-09-17T01:46:23;100477.00;;;14.20;59.39
70909;BME280;58554;52.006;5.926;2022-09-17T01:48:58;100477.97;;;14.18;59.40
70909;BME280;58554;52.006;5.926;2022-09-17T01:51:31;100480.63;;;14.18;59.70
70909;BME280;58554;52.006;5.926;2022-09-17T01:54:06;100485.81;;;14.20;59.63
70909;BME280;58554;52.006;5.926;2022-09-17T01:56:41;100483.16;;;14.20;59.63
70909;BME280;58554;52.006;5.926;2022-09-17T01:59:17;100482.31;;;14.20;59.58
70909;BME280;58554;52.006;5.926;2022-09-17T02:01:53;100477.00;;;14.20;59.79
70909;BME280;58554;52.006;5.926;2022-09-17T02:04:29;100480.50;;;14.20;59.68
70909;BME280;58554;52.006;5.926;2022-09-17T02:07:05;100482.31;;;14.20;59.65
70909;BME280;58554;52.006;5.926;2022-09-17T02:09:39;100486.66;;;14.21;59.71
70909;BME280;58554;52.006;5.926;2022-09-17T02:12:11;100484.88;;;14.21;59.58
70909;BME280;58554;52.006;5.926;2022-09-17T02:14:46;100473.25;;;14.22;59.70
70909;BME280;58554;52.006;5.926;2022-09-17T02:17:23;100479.66;;;14.31;59.54
70909;BME280;58554;52.006;5.926;2022-09-17T02:19:55;100483.31;;;14.30;59.39
70909;BME280;58554;52.006;5.926;2022-09-17T02:22:28;100481.59;;;14.29;59.47
70909;BME280;58554;52.006;5.926;2022-09-17T02:25:03;100479.09;;;14.27;59.44
70909;BME280;58554;52.006;5.926;2022-09-17T02:27:41;100481.00;;;14.25;59.48
70909;BME280;58554;52.006;5.926;2022-09-17T02:30:17;100481.97;;;14.24;59.54
70909;BME280;58554;52.006;5.926;2022-09-17T02:32:47;100481.13;;;14.24;59.34
70909;BME280;58554;52.006;5.926;2022-09-17T02:35:13;100482.31;;;14.20;59.60
70909;BME280;58554;52.006;5.926;2022-09-17T02:37:41;100475.53;;;14.15;59.65
70909;BME280;58554;52.006;5.926;2022-09-17T02:40:09;100489.78;;;14.14;59.80
70909;BME280;58554;52.006;5.926;2022-09-17T02:42:55;100494.53;;;14.11;60.05
70909;BME280;58554;52.006;5.926;2022-09-17T02:45:43;100489.19;;;14.11;59.99
70909;BME280;58554;52.006;5.926;2022-09-17T02:49:01;100486.41;;;14.12;60.10
70909;BME280;58554;52.006;5.926;2022-09-17T02:51:49;100498.03;;;14.11;59.91
70909;BME280;58554;52.006;5.926;2022-09-17T02:54:25;100495.59;;;14.08;59.74
70909;BME280;58554;52.006;5.926;2022-09-17T02:57:06;100494.75;;;14.08;60.01
70909;BME280;58554;52.006;5.926;2022-09-17T02:59:49;100492.09;;;14.08;59.90
70909;BME280;58554;52.006;5.926;2022-09-17T03:02:26;100488.59;;;14.07;60.01
70909;BME280;58554;52.006;5.926;2022-09-17T03:05:04;100496.09;;;14.13;59.96
70909;BME280;58554;52.006;5.926;2022-09-17T03:07:33;100485.94;;;14.18;59.76
70909;BME280;58554;52.006;5.926;2022-09-17T03:10:03;100493.59;;;14.23;59.61
70909;BME280;58554;52.006;5.926;2022-09-17T03:12:31;100495.03;;;14.27;59.53
70909;BME280;58554;52.006;5.926;2022-09-17T03:14:58;100496.59;;;14.30;59.38
70909;BME280;58554;52.006;5.926;2022-09-17T03:17:25;100488.38;;;14.33;59.28
70909;BME280;58554;52.006;5.926;2022-09-17T03:19:52;100490.94;;;14.34;59.21
70909;BME280;58554;52.006;5.926;2022-09-17T03:22:21;100481.13;;;14.35;59.07
70909;BME280;58554;52.006;5.926;2022-09-17T03:24:47;100481.00;;;14.36;59.11
70909;BME280;58554;52.006;5.926;2022-09-17T03:27:14;100474.00;;;14.35;58.90
70909;BME280;58554;52.006;5.926;2022-09-17T03:29:41;100480.19;;;14.36;58.73
70909;BME280;58554;52.006;5.926;2022-09-17T03:32:07;100472.19;;;14.36;58.74
70909;BME280;58554;52.006;5.926;2022-09-17T03:34:34;100474.97;;;14.34;58.57
70909;BME280;58554;52.006;5.926;2022-09-17T03:37:00;100474.13;;;14.34;58.51
70909;BME280;58554;52.006;5.926;2022-09-17T03:39:30;100473.28;;;14.33;58.48
70909;BME280;58554;52.006;5.926;2022-09-17T03:41:56;100479.66;;;14.31;58.36
70909;BME280;58554;52.006;5.926;2022-09-17T03:44:23;100474.59;;;14.28;58.33
70909;BME280;58554;52.006;5.926;2022-09-17T03:46:49;100478.22;;;14.27;58.34
70909;BME280;58554;52.006;5.926;2022-09-17T03:49:16;100469.50;;;14.25;58.20
70909;BME280;58554;52.006;5.926;2022-09-17T03:51:42;100483.41;;;14.28;58.07
70909;BME280;58554;52.006;5.926;2022-09-17T03:54:09;100480.03;;;14.26;58.13
70909;BME280;58554;52.006;5.926;2022-09-17T03:56:38;100474.72;;;14.26;58.23
70909;BME280;58554;52.006;5.926;2022-09-17T03:59:04;100496.09;;;14.25;58.05
70909;BME280;58554;52.006;5.926;2022-09-17T04:01:31;100490.91;;;14.23;57.98
70909;BME280;58554;52.006;5.926;2022-09-17T04:03:58;100495.38;;;14.23;57.97
70909;BME280;58554;52.006;5.926;2022-09-17T04:06:24;100497.28;;;14.21;58.02
70909;BME280;58554;52.006;5.926;2022-09-17T04:08:51;100491.97;;;14.21;57.90
70909;BME280;58554;52.006;5.926;2022-09-17T04:11:17;100496.34;;;14.22;57.96
70909;BME280;58554;52.006;5.926;2022-09-17T04:13:46;100499.97;;;14.21;57.90
70909;BME280;58554;52.006;5.926;2022-09-17T04:16:13;100502.50;;;14.22;57.88
70909;BME280;58554;52.006;5.926;2022-09-17T04:18:40;100512.31;;;14.22;57.82
70909;BME280;58554;52.006;5.926;2022-09-17T04:21:06;100509.75;;;14.20;57.76
70909;BME280;58554;52.006;5.926;2022-09-17T04:23:32;100521.22;;;14.21;57.67
70909;BME280;58554;52.006;5.926;2022-09-17T04:25:59;100521.22;;;14.21;57.81
70909;BME280;58554;52.006;5.926;2022-09-17T04:28:25;100517.84;;;14.18;57.68
70909;BME280;58554;52.006;5.926;2022-09-17T04:30:54;100521.59;;;14.16;57.55
70909;BME280;58554;52.006;5.926;2022-09-17T04:33:21;100517.25;;;14.15;57.64
70909;BME280;58554;52.006;5.926;2022-09-17T04:35:47;100513.97;;;14.11;57.47
70909;BME280;58554;52.006;5.926;2022-09-17T04:38:14;100513.34;;;14.08;57.61
70909;BME280;58554;52.006;5.926;2022-09-17T04:40:40;100503.06;;;14.03;57.45
70909;BME280;58554;52.006;5.926;2022-09-17T04:43:08;100507.66;;;14.01;57.50
70909;BME280;58554;52.006;5.926;2022-09-17T04:45:34;100505.25;;;13.98;57.50
70909;BME280;58554;52.006;5.926;2022-09-17T04:48:04;100505.34;;;13.96;57.54
70909;BME280;58554;52.006;5.926;2022-09-17T04:50:30;100506.56;;;13.92;57.27
70909;BME280;58554;52.006;5.926;2022-09-17T04:52:58;100503.16;;;13.90;57.41
70909;BME280;58554;52.006;5.926;2022-09-17T04:55:24;100508.59;;;13.89;57.27
70909;BME280;58554;52.006;5.926;2022-09-17T04:57:51;100500.84;;;13.86;57.31
70909;BME280;58554;52.006;5.926;2022-09-17T05:00:19;100500.00;;;13.85;57.36
70909;BME280;58554;52.006;5.926;2022-09-17T05:02:50;100501.06;;;13.83;57.24
70909;BME280;58554;52.006;5.926;2022-09-17T05:05:24;100505.53;;;13.82;57.40
70909;BME280;58554;52.006;5.926;2022-09-17T05:07:50;100501.31;;;13.80;57.29
70909;BME280;58554;52.006;5.926;2022-09-17T05:10:18;100507.56;;;13.78;57.31
70909;BME280;58554;52.006;5.926;2022-09-17T05:12:48;100509.41;;;13.78;57.30
70909;BME280;58554;52.006;5.926;2022-09-17T05:15:15;100510.34;;;13.77;57.29
70909;BME280;58554;52.006;5.926;2022-09-17T05:17:43;100507.09;;;13.73;57.26
70909;BME280;58554;52.006;5.926;2022-09-17T05:20:10;100510.19;;;13.67;57.12
70909;BME280;58554;52.006;5.926;2022-09-17T05:22:46;100511.59;;;13.60;57.12
70909;BME280;58554;52.006;5.926;2022-09-17T05:25:19;100515.75;;;13.51;57.11
70909;BME280;58554;52.006;5.926;2022-09-17T05:27:47;100519.22;;;13.41;57.25
70909;BME280;58554;52.006;5.926;2022-09-17T05:30:13;100542.09;;;13.30;57.30
70909;BME280;58554;52.006;5.926;2022-09-17T05:32:40;100542.13;;;13.17;57.38
70909;BME280;58554;52.006;5.926;2022-09-17T05:35:08;100529.84;;;13.04;57.40
70909;BME280;58554;52.006;5.926;2022-09-17T05:37:36;100540.47;;;12.91;57.58
70909;BME280;58554;52.006;5.926;2022-09-17T05:40:07;100548.47;;;12.78;57.81
70909;BME280;58554;52.006;5.926;2022-09-17T05:42:35;100552.81;;;12.66;57.72
70909;BME280;58554;52.006;5.926;2022-09-17T05:45:02;100548.47;;;12.52;57.97
70909;BME280;58554;52.006;5.926;2022-09-17T05:47:28;100551.88;;;12.42;58.09
70909;BME280;58554;52.006;5.926;2022-09-17T05:49:55;100547.28;;;12.31;58.50
70909;BME280;58554;52.006;5.926;2022-09-17T05:52:21;100551.38;;;12.22;58.55
70909;BME280;58554;52.006;5.926;2022-09-17T05:54:52;100545.97;;;12.11;58.83
70909;BME280;58554;52.006;5.926;2022-09-17T05:57:21;100551.03;;;12.01;58.98
70909;BME280;58554;52.006;5.926;2022-09-17T05:59:47;100551.66;;;11.92;59.06
70909;BME280;58554;52.006;5.926;2022-09-17T06:02:13;100558.38;;;11.83;59.09
70909;BME280;58554;52.006;5.926;2022-09-17T06:04:40;100564.13;;;11.77;59.36
70909;BME280;58554;52.006;5.926;2022-09-17T06:07:06;100561.97;;;11.69;59.49
70909;BME280;58554;52.006;5.926;2022-09-17T06:09:34;100572.94;;;11.63;59.76
70909;BME280;58554;52.006;5.926;2022-09-17T06:12:01;100564.56;;;11.57;59.78
70909;BME280;58554;52.006;5.926;2022-09-17T06:14:31;100568.53;;;11.49;59.84
70909;BME280;58554;52.006;5.926;2022-09-17T06:16:57;100574.13;;;11.45;60.17
70909;BME280;58554;52.006;5.926;2022-09-17T06:19:24;100577.06;;;11.40;60.26
70909;BME280;58554;52.006;5.926;2022-09-17T06:21:50;100576.41;;;11.37;60.21
70909;BME280;58554;52.006;5.926;2022-09-17T06:24:17;100583.59;;;11.34;60.50
70909;BME280;58554;52.006;5.926;2022-09-17T06:26:43;100574.91;;;11.32;60.54
70909;BME280;58554;52.006;5.926;2022-09-17T06:29:09;100574.16;;;11.30;60.74
70909;BME280;58554;52.006;5.926;2022-09-17T06:31:38;100575.13;;;11.29;60.79
70909;BME280;58554;52.006;5.926;2022-09-17T06:34:05;100580.41;;;11.29;61.20
70909;BME280;58554;52.006;5.926;2022-09-17T06:36:31;100576.91;;;11.29;61.01
70909;BME280;58554;52.006;5.926;2022-09-17T06:38:58;100582.19;;;11.29;61.14
70909;BME280;58554;52.006;5.926;2022-09-17T06:41:24;100584.75;;;11.30;61.15
70909;BME280;58554;52.006;5.926;2022-09-17T06:43:51;100578.69;;;11.28;61.35
70909;BME280;58554;52.006;5.926;2022-09-17T06:46:19;100579.53;;;11.29;61.30
70909;BME280;58554;52.006;5.926;2022-09-17T06:48:48;100574.16;;;11.30;61.64
70909;BME280;58554;52.006;5.926;2022-09-17T06:51:14;100583.81;;;11.31;61.53
70909;BME280;58554;52.006;5.926;2022-09-17T06:53:40;100580.28;;;11.31;61.72
70909;BME280;58554;52.006;5.926;2022-09-17T06:56:08;100579.44;;;11.30;61.65
70909;BME280;58554;52.006;5.926;2022-09-17T06:58:36;100580.22;;;11.32;61.73
70909;BME280;58554;52.006;5.926;2022-09-17T07:01:04;100585.50;;;11.32;61.94
70909;BME280;58554;52.006;5.926;2022-09-17T07:03:31;100582.75;;;11.34;61.70
70909;BME280;58554;52.006;5.926;2022-09-17T07:06:01;100583.50;;;11.36;62.00
70909;BME280;58554;52.006;5.926;2022-09-17T07:08:31;100578.00;;;11.39;62.20
70909;BME280;58554;52.006;5.926;2022-09-17T07:10:58;100586.53;;;11.44;62.09
70909;BME280;58554;52.006;5.926;2022-09-17T07:13:25;100593.31;;;11.48;61.92
70909;BME280;58554;52.006;5.926;2022-09-17T07:15:53;100581.69;;;11.51;62.16
70909;BME280;58554;52.006;5.926;2022-09-17T07:18:22;100588.38;;;11.57;62.31
70909;BME280;58554;52.006;5.926;2022-09-17T07:20:52;100589.91;;;11.61;62.50
70909;BME280;58554;52.006;5.926;2022-09-17T07:23:25;100588.94;;;11.62;62.39
70909;BME280;58554;52.006;5.926;2022-09-17T07:25:57;100582.50;;;11.66;62.38
70909;BME280;58554;52.006;5.926;2022-09-17T07:28:27;100584.75;;;11.72;62.39
70909;BME280;58554;52.006;5.926;2022-09-17T07:30:54;100590.47;;;11.79;62.40
70909;BME280;58554;52.006;5.926;2022-09-17T07:33:24;100585.75;;;11.84;62.59
70909;BME280;58554;52.006;5.926;2022-09-17T07:35:53;100594.22;;;11.89;62.38
70909;BME280;58554;52.006;5.926;2022-09-17T07:38:24;100588.63;;;11.93;62.42
70909;BME280;58554;52.006;5.926;2022-09-17T07:40:55;100588.34;;;11.98;62.50
70909;BME280;58554;52.006;5.926;2022-09-17T07:43:24;100581.88;;;12.02;62.53
70909;BME280;58554;52.006;5.926;2022-09-17T07:45:51;100587.63;;;12.09;62.66
70909;BME280;58554;52.006;5.926;2022-09-17T07:48:18;100582.84;;;12.14;62.51
70909;BME280;58554;52.006;5.926;2022-09-17T07:50:44;100583.50;;;12.18;62.46
70909;BME280;58554;52.006;5.926;2022-09-17T07:53:11;100586.91;;;12.20;62.43
70909;BME280;58554;52.006;5.926;2022-09-17T07:55:40;100583.09;;;12.24;62.54
70909;BME280;58554;52.006;5.926;2022-09-17T07:58:07;100584.59;;;12.28;62.50
70909;BME280;58554;52.006;5.926;2022-09-17T08:00:34;100585.28;;;12.31;62.38
70909;BME280;58554;52.006;5.926;2022-09-17T08:03:00;100583.13;;;12.36;62.45
70909;BME280;58554;52.006;5.926;2022-09-17T08:05:27;100577.53;;;12.41;62.57
70909;BME280;58554;52.006;5.926;2022-09-17T08:07:54;100577.31;;;12.44;62.35
70909;BME280;58554;52.006;5.926;2022-09-17T08:10:21;100575.28;;;12.48;62.46
70909;BME280;58554;52.006;5.926;2022-09-17T08:12:55;100575.84;;;12.53;62.52
70909;BME280;58554;52.006;5.926;2022-09-17T08:15:24;100583.47;;;12.57;62.39
70909;BME280;58554;52.006;5.926;2022-09-17T08:17:51;100584.03;;;12.63;62.45
70909;BME280;58554;52.006;5.926;2022-09-17T08:20:18;100577.66;;;12.65;62.22
70909;BME280;58554;52.006;5.926;2022-09-17T08:22:45;100577.22;;;12.71;62.23
70909;BME280;58554;52.006;5.926;2022-09-17T08:25:11;100580.41;;;12.76;62.20
70909;BME280;58554;52.006;5.926;2022-09-17T08:27:38;100575.72;;;12.80;61.90
70909;BME280;58554;52.006;5.926;2022-09-17T08:30:08;100577.00;;;12.87;62.22
70909;BME280;58554;52.006;5.926;2022-09-17T08:32:35;100569.34;;;12.95;62.04
70909;BME280;58554;52.006;5.926;2022-09-17T08:35:02;100571.03;;;13.09;61.88
70909;BME280;58554;52.006;5.926;2022-09-17T08:37:28;100576.41;;;13.21;61.82
70909;BME280;58554;52.006;5.926;2022-09-17T08:39:55;100576.72;;;13.29;61.53
70909;BME280;58554;52.006;5.926;2022-09-17T08:42:26;100571.84;;;13.35;61.42
70909;BME280;58554;52.006;5.926;2022-09-17T08:45:04;100572.22;;;13.42;61.37
70909;BME280;58554;52.006;5.926;2022-09-17T08:47:43;100583.88;;;13.52;60.77
70909;BME280;58554;52.006;5.926;2022-09-17T08:50:13;100584.31;;;13.59;60.57
70909;BME280;58554;52.006;5.926;2022-09-17T08:53:04;100590.88;;;13.66;60.20
70909;BME280;58554;52.006;5.926;2022-09-17T08:55:56;100576.41;;;13.70;59.78
70909;BME280;58554;52.006;5.926;2022-09-17T08:58:47;100579.69;;;13.74;59.46
70909;BME280;58554;52.006;5.926;2022-09-17T09:01:33;100582.72;;;13.81;58.89
70909;BME280;58554;52.006;5.926;2022-09-17T09:04:35;100584.19;;;13.85;58.82
70909;BME280;58554;52.006;5.926;2022-09-17T09:07:20;100576.47;;;13.82;58.25
70909;BME280;58554;52.006;5.926;2022-09-17T09:09:57;100579.84;;;13.84;58.01
70909;BME280;58554;52.006;5.926;2022-09-17T09:12:41;100571.88;;;13.84;57.55
70909;BME280;58554;52.006;5.926;2022-09-17T09:15:32;100575.88;;;13.89;56.83
70909;BME280;58554;52.006;5.926;2022-09-17T09:18:20;100578.22;;;13.94;56.95
70909;BME280;58554;52.006;5.926;2022-09-17T09:20:51;100572.75;;;13.95;56.99
70909;BME280;58554;52.006;5.926;2022-09-17T09:23:22;100574.97;;;14.02;57.16
70909;BME280;58554;52.006;5.926;2022-09-17T09:26:09;100575.38;;;14.08;57.07
70909;BME280;58554;52.006;5.926;2022-09-17T09:29:03;100585.53;;;14.14;56.66
70909;BME280;58554;52.006;5.926;2022-09-17T09:31:57;100594.00;;;14.20;56.73
70909;BME280;58554;52.006;5.926;2022-09-17T09:34:40;100588.22;;;14.26;56.51
70909;BME280;58554;52.006;5.926;2022-09-17T09:37:14;100589.69;;;14.30;56.27
70909;BME280;58554;52.006;5.926;2022-09-17T09:39:47;100586.47;;;14.37;56.26
70909;BME280;58554;52.006;5.926;2022-09-17T09:42:29;100566.28;;;14.46;56.11
70909;BME280;58554;52.006;5.926;2022-09-17T09:45:11;100591.94;;;14.58;56.08
70909;BME280;58554;52.006;5.926;2022-09-17T09:47:55;100596.94;;;14.74;55.28
70909;BME280;58554;52.006;5.926;2022-09-17T09:50:41;100624.91;;;14.80;55.57
70909;BME280;58554;52.006;5.926;2022-09-17T09:53:24;100629.69;;;14.64;56.32
70909;BME280;58554;52.006;5.926;2022-09-17T09:56:17;100624.94;;;14.45;57.04
70909;BME280;58554;52.006;5.926;2022-09-17T09:59:07;100613.28;;;14.34;57.49
70909;BME280;58554;52.006;5.926;2022-09-17T10:01:39;100621.63;;;14.30;57.70
70909;BME280;58554;52.006;5.926;2022-09-17T10:04:17;100608.03;;;14.22;57.99
70909;BME280;58554;52.006;5.926;2022-09-17T10:06:51;100600.97;;;14.09;58.34
70909;BME280;58554;52.006;5.926;2022-09-17T10:09:21;100607.84;;;14.01;58.49
70909;BME280;58554;52.006;5.926;2022-09-17T10:12:05;100602.88;;;13.96;59.40
70909;BME280;58554;52.006;5.926;2022-09-17T10:14:44;100613.72;;;13.93;59.48
70909;BME280;58554;52.006;5.926;2022-09-17T10:17:19;100614.69;;;13.92;59.80
70909;BME280;58554;52.006;5.926;2022-09-17T10:20:13;100610.13;;;13.94;60.12
70909;BME280;58554;52.006;5.926;2022-09-17T10:22:46;100618.69;;;13.97;60.19
70909;BME280;58554;52.006;5.926;2022-09-17T10:25:23;100627.19;;;14.03;60.11
70909;BME280;58554;52.006;5.926;2022-09-17T10:27:55;100614.75;;;14.03;60.36
70909;BME280;58554;52.006;5.926;2022-09-17T10:30:26;100624.06;;;14.09;60.41
70909;BME280;58554;52.006;5.926;2022-09-17T10:33:14;100629.81;;;14.27;60.54
70909;BME280;58554;52.006;5.926;2022-09-17T10:35:55;100653.28;;;14.33;60.42
70909;BME280;58554;52.006;5.926;2022-09-17T10:38:33;100687.38;;;14.28;59.83
70909;BME280;58554;52.006;5.926;2022-09-17T10:41:22;100678.34;;;13.93;59.19
70909;BME280;58554;52.006;5.926;2022-09-17T10:43:49;100664.53;;;13.64;59.21
70909;BME280;58554;52.006;5.926;2022-09-17T10:46:24;100634.25;;;13.41;59.57
70909;BME280;58554;52.006;5.926;2022-09-17T10:49:09;100629.22;;;13.25;60.24
70909;BME280;58554;52.006;5.926;2022-09-17T10:51:44;100632.50;;;13.16;59.96
70909;BME280;58554;52.006;5.926;2022-09-17T10:54:29;100624.97;;;13.10;60.39
70909;BME280;58554;52.006;5.926;2022-09-17T10:57:26;100618.50;;;13.01;60.43
70909;BME280;58554;52.006;5.926;2022-09-17T11:00:10;100617.66;;;13.01;60.82
70909;BME280;58554;52.006;5.926;2022-09-17T11:03:07;100613.72;;;13.06;61.34
70909;BME280;58554;52.006;5.926;2022-09-17T11:06:05;100602.78;;;13.11;61.84
70909;BME280;58554;52.006;5.926;2022-09-17T11:09:04;100589.69;;;13.21;61.75
70909;BME280;58554;52.006;5.926;2022-09-17T11:11:53;100585.31;;;13.32;62.30
70909;BME280;58554;52.006;5.926;2022-09-17T11:14:48;100581.88;;;13.43;62.31
70909;BME280;58554;52.006;5.926;2022-09-17T11:18:00;100576.44;;;13.57;62.78
70909;BME280;58554;52.006;5.926;2022-09-17T11:21:04;100571.41;;;13.66;62.24
70909;BME280;58554;52.006;5.926;2022-09-17T11:27:19;100568.94;;;13.75;62.75
70909;BME280;58554;52.006;5.926;2022-09-17T11:30:15;100556.16;;;13.81;62.59
70909;BME280;58554;52.006;5.926;2022-09-17T11:33:11;100557.63;;;13.85;62.51
70909;BME280;58554;52.006;5.926;2022-09-17T11:35:56;100558.97;;;13.90;61.91
70909;BME280;58554;52.006;5.926;2022-09-17T11:38:35;100559.47;;;13.95;61.72
70909;BME280;58554;52.006;5.926;2022-09-17T11:41:12;100557.53;;;13.97;61.24
70909;BME280;58554;52.006;5.926;2022-09-17T11:43:53;100552.84;;;14.01;61.29
70909;BME280;58554;52.006;5.926;2022-09-17T11:46:33;100555.16;;;14.06;61.27
70909;BME280;58554;52.006;5.926;2022-09-17T11:49:12;100559.28;;;14.10;61.22
70909;BME280;58554;52.006;5.926;2022-09-17T11:51:54;100554.97;;;14.20;61.06
70909;BME280;58554;52.006;5.926;2022-09-17T11:54:28;100554.03;;;14.32;60.72
70909;BME280;58554;52.006;5.926;2022-09-17T11:57:06;100558.31;;;14.46;60.01
70909;BME280;58554;52.006;5.926;2022-09-17T11:59:46;100543.56;;;14.65;59.80
70909;BME280;58554;52.006;5.926;2022-09-17T12:02:22;100548.66;;;14.79;59.42
70909;BME280;58554;52.006;5.926;2022-09-17T12:05:06;100553.66;;;14.84;58.71
70909;BME280;58554;52.006;5.926;2022-09-17T12:07:44;100568.19;;;14.80;58.11
70909;BME280;58554;52.006;5.926;2022-09-17T12:10:34;100580.84;;;14.65;58.06
70909;BME280;58554;52.006;5.926;2022-09-17T12:13:21;100582.72;;;14.40;58.52
70909;BME280;58554;52.006;5.926;2022-09-17T12:16:11;100584.22;;;14.20;58.88
70909;BME280;58554;52.006;5.926;2022-09-17T12:18:51;100590.59;;;14.06;59.04
70909;BME280;58554;52.006;5.926;2022-09-17T12:21:28;100589.59;;;13.96;59.14
70909;BME280;58554;52.006;5.926;2022-09-17T12:24:09;100575.66;;;13.92;59.37
70909;BME280;58554;52.006;5.926;2022-09-17T12:27:04;100580.25;;;13.90;59.58
70909;BME280;58554;52.006;5.926;2022-09-17T12:30:03;100577.69;;;13.89;59.62
70909;BME280;58554;52.006;5.926;2022-09-17T12:33:10;100577.59;;;13.90;59.83
70909;BME280;58554;52.006;5.926;2022-09-17T12:35:57;100573.75;;;13.94;59.54
70909;BME280;58554;52.006;5.926;2022-09-17T12:38:58;100568.25;;;14.09;59.86
70909;BME280;58554;52.006;5.926;2022-09-17T12:42:03;100576.03;;;14.34;59.69
70909;BME280;58554;52.006;5.926;2022-09-17T12:44:58;100594.72;;;14.57;58.93
70909;BME280;58554;52.006;5.926;2022-09-17T12:51:07;100579.41;;;14.83;57.73
70909;BME280;58554;52.006;5.926;2022-09-17T12:53:56;100582.69;;;14.87;57.26
70909;BME280;58554;52.006;5.926;2022-09-17T12:56:50;100576.53;;;14.86;56.85
70909;BME280;58554;52.006;5.926;2022-09-17T12:59:29;100569.84;;;14.81;56.86
70909;BME280;58554;52.006;5.926;2022-09-17T13:02:01;100590.53;;;14.77;56.70
70909;BME280;58554;52.006;5.926;2022-09-17T13:05:02;100569.00;;;14.69;56.71
70909;BME280;58554;52.006;5.926;2022-09-17T13:08:11;100568.25;;;14.67;56.90
70909;BME280;58554;52.006;5.926;2022-09-17T13:11:33;100574.09;;;14.72;56.69
70909;BME280;58554;52.006;5.926;2022-09-17T13:14:20;100578.22;;;14.76;56.66
70909;BME280;58554;52.006;5.926;2022-09-17T13:16:59;100585.34;;;14.75;56.40
70909;BME280;58554;52.006;5.926;2022-09-17T13:19:36;100575.03;;;14.71;56.65
70909;BME280;58554;52.006;5.926;2022-09-17T13:22:16;100566.66;;;14.64;56.60
70909;BME280;58554;52.006;5.926;2022-09-17T13:24:45;100571.00;;;14.54;56.59
70909;BME280;58554;52.006;5.926;2022-09-17T13:27:26;100564.47;;;14.47;56.84
70909;BME280;58554;52.006;5.926;2022-09-17T13:30:01;100562.66;;;14.47;57.00
70909;BME280;58554;52.006;5.926;2022-09-17T13:32:44;100581.63;;;14.54;57.26
70909;BME280;58554;52.006;5.926;2022-09-17T13:35:45;100598.94;;;14.59;57.09
70909;BME280;58554;52.006;5.926;2022-09-17T13:38:16;100569.94;;;14.68;56.81
70909;BME280;58554;52.006;5.926;2022-09-17T13:40:45;100566.84;;;14.74;56.41
70909;BME280;58554;52.006;5.926;2022-09-17T13:43:14;100572.78;;;14.77;55.88